Time;durP1;ratioP1;P1;durP2;ratioP2;P2;SDS_P1;SDS_P2;PMS_P1;PMS_P2;Temp;Humidity;BMP_temperature;BMP_pressure;BME280_temperature;BME280_humidity;BME280_pressure;Samples;Min_cycle;Max_cycle;Signal;HPM_P1;HPM_P2
2023/08/13 00:00:45;;;;;;;27.88;5.75;;;18.80;99.90;;;;;;5053837;28;20037;-66
2023/08/13 00:03:11;;;;;;;16.15;3.78;;;18.80;99.90;;;;;;5053531;28;20074;-68
2023/08/13 00:05:36;;;;;;;26.20;4.80;;;18.80;99.90;;;;;;5053284;28;20021;-68
2023/08/13 00:08:02;;;;;;;19.77;4.53;;;18.80;99.90;;;;;;5052819;28;20033;-68
2023/08/13 00:10:27;;;;;;;20.92;4.68;;;18.80;99.90;;;;;;5053003;28;20029;-68
2023/08/13 00:12:53;;;;;;;26.35;6.13;;;18.90;99.90;;;;;;5052739;28;20033;-67
2023/08/13 00:15:18;;;;;;;24.83;5.10;;;18.90;99.90;;;;;;5053621;28;20154;-69
2023/08/13 00:17:45;;;;;;;24.15;4.93;;;19.00;99.90;;;;;;5053029;28;20033;-68
2023/08/13 00:20:11;;;;;;;25.23;5.05;;;19.00;99.90;;;;;;5052448;28;20134;-68
2023/08/13 00:22:36;;;;;;;20.58;5.10;;;19.00;99.90;;;;;;5052881;28;20033;-70
2023/08/13 00:25:02;;;;;;;25.05;5.10;;;19.00;99.90;;;;;;5052920;28;20033;-65
2023/08/13 00:27:28;;;;;;;27.27;4.40;;;19.00;99.90;;;;;;5052339;28;20032;-67
2023/08/13 00:29:54;;;;;;;22.10;4.15;;;19.00;99.90;;;;;;5051525;28;20028;-67
2023/08/13 00:32:20;;;;;;;19.98;4.35;;;19.00;99.90;;;;;;5052924;28;20174;-67
2023/08/13 00:34:46;;;;;;;25.48;4.72;;;19.00;99.90;;;;;;5052243;28;20077;-69
2023/08/13 00:37:11;;;;;;;20.48;5.07;;;19.00;99.90;;;;;;5051592;28;20026;-69
2023/08/13 00:39:37;;;;;;;21.55;5.32;;;18.90;99.90;;;;;;5051979;28;20045;-67
2023/08/13 00:42:03;;;;;;;23.73;4.82;;;18.90;99.90;;;;;;5052874;28;20388;-67
2023/08/13 00:44:29;;;;;;;19.20;4.40;;;19.00;99.90;;;;;;5052723;28;20037;-69
2023/08/13 00:46:54;;;;;;;17.02;4.50;;;19.00;99.90;;;;;;5052801;28;20040;-70
2023/08/13 00:49:20;;;;;;;21.08;4.10;;;18.90;99.90;;;;;;5052812;28;20172;-68
2023/08/13 00:51:45;;;;;;;23.38;5.13;;;19.00;99.90;;;;;;5052178;28;20032;-68
2023/08/13 00:54:12;;;;;;;20.60;3.97;;;19.00;99.90;;;;;;5052720;28;20029;-68
2023/08/13 00:56:40;;;;;;;18.13;4.20;;;19.00;99.90;;;;;;5052548;28;20120;-70
2023/08/13 00:59:06;;;;;;;17.35;4.10;;;19.10;99.90;;;;;;5052360;28;20041;-67
2023/08/13 01:01:32;;;;;;;20.83;3.65;;;19.10;99.90;;;;;;5052299;28;20025;-69
2023/08/13 01:03:58;;;;;;;22.08;4.20;;;19.00;99.90;;;;;;5052561;28;20151;-68
2023/08/13 01:06:41;;;;;;;22.67;4.82;;;19.10;99.90;;;;;;5052290;28;20060;-68
2023/08/13 01:09:25;;;;;;;20.98;3.97;;;19.10;99.90;;;;;;5052425;28;20021;-68
2023/08/13 01:11:50;;;;;;;22.52;4.35;;;19.10;99.90;;;;;;5052332;28;20461;-67
2023/08/13 01:14:26;;;;;;;16.55;3.45;;;19.10;99.90;;;;;;5052380;28;20100;-67
2023/08/13 01:16:54;;;;;;;26.33;4.15;;;19.10;99.90;;;;;;5052115;28;20033;-67
2023/08/13 01:19:20;;;;;;;24.63;4.18;;;19.00;99.90;;;;;;5052344;28;20114;-69
2023/08/13 01:21:46;;;;;;;16.60;3.75;;;19.00;99.90;;;;;;5052152;28;20025;-67
2023/08/13 01:24:12;;;;;;;23.58;3.90;;;19.00;99.90;;;;;;5052063;28;20446;-67
2023/08/13 01:26:48;;;;;;;17.17;3.08;;;19.00;99.90;;;;;;5052125;28;20029;-67
2023/08/13 01:29:59;;;;;;;24.20;4.22;;;19.00;99.90;;;;;;5052061;28;20031;-68
2023/08/13 01:32:29;;;;;;;19.55;3.28;;;19.00;99.90;;;;;;5044410;28;20088;-67
2023/08/13 01:34:56;;;;;;;19.45;3.83;;;18.90;99.90;;;;;;5056438;28;20043;-68
2023/08/13 01:37:22;;;;;;;19.20;3.38;;;19.00;99.90;;;;;;5056005;28;20021;-68
2023/08/13 01:39:48;;;;;;;20.40;3.40;;;19.00;99.90;;;;;;5055964;28;20508;-69
2023/08/13 01:42:14;;;;;;;22.25;3.67;;;18.90;99.90;;;;;;5055978;28;20028;-67
2023/08/13 01:44:39;;;;;;;21.73;3.90;;;18.90;99.90;;;;;;5056035;28;20035;-68
2023/08/13 01:47:05;;;;;;;23.85;3.83;;;19.00;99.90;;;;;;5055761;28;20029;-69
2023/08/13 01:49:32;;;;;;;21.38;4.15;;;18.90;99.90;;;;;;5055601;28;20109;-69
2023/08/13 01:51:57;;;;;;;18.67;3.63;;;18.90;99.90;;;;;;5055683;28;20036;-69
2023/08/13 01:54:23;;;;;;;18.73;4.15;;;18.90;99.90;;;;;;5055760;28;20029;-68
2023/08/13 01:56:48;;;;;;;21.50;3.47;;;18.90;99.90;;;;;;5055810;28;20032;-67
2023/08/13 01:59:15;;;;;;;22.40;3.83;;;18.90;99.90;;;;;;5055750;28;20103;-70
2023/08/13 02:01:41;;;;;;;17.17;4.05;;;18.90;99.90;;;;;;5055494;28;20472;-70
2023/08/13 02:04:06;;;;;;;21.70;3.58;;;18.90;99.90;;;;;;5055680;28;20082;-70
2023/08/13 02:06:35;;;;;;;21.23;4.38;;;18.90;99.90;;;;;;5055910;28;20082;-70
2023/08/13 02:09:00;;;;;;;24.58;3.38;;;18.80;99.90;;;;;;5055469;28;20376;-68
2023/08/13 02:11:26;;;;;;;19.30;3.83;;;18.80;99.90;;;;;;5055445;28;20025;-68
2023/08/13 02:13:51;;;;;;;20.73;3.15;;;18.90;99.90;;;;;;5055471;28;20057;-69
2023/08/13 02:16:17;;;;;;;16.13;2.97;;;18.90;99.90;;;;;;5055645;28;20029;-67
2023/08/13 02:18:42;;;;;;;20.50;3.83;;;18.80;99.90;;;;;;5055039;28;20025;-68
2023/08/13 02:21:08;;;;;;;20.92;3.67;;;18.80;99.90;;;;;;5055152;28;20078;-68
2023/08/13 02:23:33;;;;;;;20.15;3.92;;;18.90;99.90;;;;;;5055265;28;20402;-67
2023/08/13 02:25:59;;;;;;;20.65;3.92;;;18.80;99.90;;;;;;5055386;28;20036;-66
2023/08/13 02:28:25;;;;;;;17.00;3.97;;;18.80;99.90;;;;;;5054998;28;20126;-65
2023/08/13 02:30:51;;;;;;;24.67;4.07;;;18.80;99.90;;;;;;5055070;28;20021;-65
2023/08/13 02:33:16;;;;;;;21.63;3.90;;;18.70;99.90;;;;;;5054963;28;20436;-66
2023/08/13 02:35:42;;;;;;;21.60;4.50;;;18.70;99.90;;;;;;5055179;28;20033;-67
2023/08/13 02:38:08;;;;;;;20.60;4.28;;;18.70;99.90;;;;;;5054986;28;20025;-68
2023/08/13 02:40:33;;;;;;;23.65;4.38;;;18.60;99.90;;;;;;5054484;28;20128;-67
2023/08/13 02:42:59;;;;;;;13.60;3.20;;;18.60;99.90;;;;;;5054465;28;20025;-66
2023/08/13 02:45:25;;;;;;;19.33;4.20;;;18.60;99.90;;;;;;5053727;28;20428;-67
2023/08/13 02:47:50;;;;;;;19.45;3.63;;;18.50;99.90;;;;;;5055028;28;20029;-67
2023/08/13 02:50:16;;;;;;;19.33;3.60;;;18.60;99.90;;;;;;5054850;28;20083;-67
2023/08/13 02:52:41;;;;;;;18.83;3.35;;;18.50;99.90;;;;;;5054748;28;20029;-67
2023/08/13 02:55:07;;;;;;;18.45;3.30;;;18.50;99.90;;;;;;5054851;28;20032;-69
2023/08/13 02:57:33;;;;;;;16.60;3.20;;;18.50;99.90;;;;;;5054558;28;20103;-68
2023/08/13 02:59:58;;;;;;;19.27;3.35;;;18.50;99.90;;;;;;5054629;28;20045;-67
2023/08/13 03:02:24;;;;;;;20.35;3.92;;;18.50;99.90;;;;;;5054349;28;20025;-66
2023/08/13 03:04:50;;;;;;;18.58;3.63;;;18.50;99.90;;;;;;5054234;28;20076;-67
2023/08/13 03:07:16;;;;;;;17.83;3.15;;;18.60;99.90;;;;;;5054480;28;20036;-67
2023/08/13 03:09:41;;;;;;;18.25;3.92;;;18.60;99.90;;;;;;5054922;28;20029;-68
2023/08/13 03:12:07;;;;;;;18.83;3.28;;;18.60;99.90;;;;;;5054188;28;20064;-69
2023/08/13 03:14:33;;;;;;;16.80;3.53;;;18.50;99.90;;;;;;5054495;28;20029;-69
2023/08/13 03:16:59;;;;;;;26.95;4.05;;;18.60;99.90;;;;;;5054502;28;20102;-67
2023/08/13 03:19:24;;;;;;;19.40;3.40;;;18.60;99.90;;;;;;5054022;28;20049;-68
2023/08/13 03:21:50;;;;;;;24.40;3.33;;;18.60;99.90;;;;;;5053871;28;20032;-66
2023/08/13 03:24:15;;;;;;;17.17;3.17;;;18.60;99.90;;;;;;5054129;28;20043;-67
2023/08/13 03:26:41;;;;;;;20.27;3.50;;;18.60;99.90;;;;;;5054284;28;20534;-66
2023/08/13 03:29:07;;;;;;;30.30;4.25;;;18.70;99.90;;;;;;5054452;28;20119;-67
2023/08/13 03:31:32;;;;;;;22.65;4.07;;;18.60;99.90;;;;;;5053940;28;20029;-67
2023/08/13 03:33:58;;;;;;;18.23;3.25;;;18.70;99.90;;;;;;5054018;28;20029;-67
2023/08/13 03:36:25;;;;;;;17.10;3.38;;;18.70;99.90;;;;;;5053591;28;20075;-67
2023/08/13 03:38:50;;;;;;;19.42;3.38;;;18.70;99.90;;;;;;5053614;28;20109;-67
2023/08/13 03:41:16;;;;;;;15.38;3.95;;;18.70;99.90;;;;;;5053742;28;20116;-67
2023/08/13 03:43:41;;;;;;;16.13;3.10;;;18.70;99.90;;;;;;5053734;28;20420;-67
2023/08/13 03:46:07;;;;;;;19.42;3.50;;;18.70;99.90;;;;;;5053673;28;20384;-67
2023/08/13 03:48:33;;;;;;;20.83;3.17;;;18.70;99.90;;;;;;5053680;28;20323;-68
2023/08/13 03:50:58;;;;;;;15.63;2.95;;;18.70;99.90;;;;;;5053183;28;20040;-68
2023/08/13 03:53:24;;;;;;;16.30;2.90;;;18.70;99.90;;;;;;5053699;28;20475;-70
2023/08/13 03:55:50;;;;;;;13.00;2.40;;;18.70;99.90;;;;;;5052638;28;20025;-67
2023/08/13 03:58:16;;;;;;;16.85;3.00;;;18.70;99.90;;;;;;5052909;28;20098;-67
2023/08/13 04:00:42;;;;;;;12.77;3.03;;;18.60;99.90;;;;;;5053303;28;20128;-68
2023/08/13 04:03:09;;;;;;;18.45;2.72;;;18.70;99.90;;;;;;5053734;28;20025;-69
2023/08/13 04:05:35;;;;;;;13.80;2.83;;;18.60;99.90;;;;;;5052968;28;20025;-68
2023/08/13 04:08:00;;;;;;;20.13;3.42;;;18.70;99.90;;;;;;5053653;28;20025;-68
2023/08/13 04:10:26;;;;;;;18.48;3.40;;;18.60;99.90;;;;;;5052143;28;20036;-68
2023/08/13 04:12:52;;;;;;;16.58;2.67;;;18.60;99.90;;;;;;5053501;28;20029;-67
2023/08/13 04:15:18;;;;;;;23.20;3.17;;;18.60;99.90;;;;;;5053471;28;20040;-68
2023/08/13 04:17:43;;;;;;;19.85;3.00;;;18.60;99.90;;;;;;5053073;28;20024;-66
2023/08/13 04:20:10;;;;;;;16.70;2.92;;;18.50;99.90;;;;;;5053023;28;20119;-67
2023/08/13 04:22:36;;;;;;;15.55;3.05;;;18.50;99.90;;;;;;5053362;28;20056;-67
2023/08/13 04:25:01;;;;;;;21.13;3.30;;;18.50;99.90;;;;;;5053449;28;20068;-70
2023/08/13 04:27:27;;;;;;;15.65;2.95;;;18.50;99.90;;;;;;5053256;28;20095;-68
2023/08/13 04:29:52;;;;;;;14.07;2.60;;;18.50;99.90;;;;;;5053099;28;20036;-69
2023/08/13 04:32:18;;;;;;;17.58;3.22;;;18.60;99.90;;;;;;5053229;28;20041;-69
2023/08/13 04:34:43;;;;;;;16.02;2.97;;;18.60;99.90;;;;;;5051562;28;20029;-68
2023/08/13 04:37:09;;;;;;;19.13;3.42;;;18.60;99.90;;;;;;5053210;28;20029;-66
2023/08/13 04:39:35;;;;;;;16.00;3.05;;;18.60;99.90;;;;;;5052734;28;20041;-67
2023/08/13 04:42:00;;;;;;;13.35;2.70;;;18.60;99.90;;;;;;5052722;28;20036;-69
2023/08/13 04:44:26;;;;;;;15.50;3.50;;;18.60;99.90;;;;;;5052397;28;20024;-69
2023/08/13 04:46:52;;;;;;;16.73;2.80;;;18.60;99.90;;;;;;5052732;28;20055;-67
2023/08/13 04:49:18;;;;;;;16.73;3.17;;;18.70;99.90;;;;;;5052001;28;20496;-69
2023/08/13 04:51:43;;;;;;;16.40;3.30;;;18.70;99.90;;;;;;5052844;28;20369;-67
2023/08/13 04:54:09;;;;;;;17.75;2.90;;;18.70;99.90;;;;;;5052751;28;20082;-68
2023/08/13 04:56:34;;;;;;;17.30;3.00;;;18.70;99.90;;;;;;5052606;28;20065;-68
2023/08/13 04:59:01;;;;;;;12.60;2.83;;;18.70;99.90;;;;;;5052019;28;20430;-68
2023/08/13 05:01:26;;;;;;;16.95;2.90;;;18.70;99.90;;;;;;5052442;28;20029;-69
2023/08/13 05:03:52;;;;;;;15.55;3.40;;;18.70;99.90;;;;;;5051562;28;20025;-67
2023/08/13 05:06:17;;;;;;;17.10;2.90;;;18.80;99.90;;;;;;5051315;28;20108;-67
2023/08/13 05:08:43;;;;;;;15.90;2.85;;;18.80;99.90;;;;;;5049573;28;20032;-69
2023/08/13 05:11:09;;;;;;;13.60;2.75;;;18.80;99.90;;;;;;5052437;28;20354;-67
2023/08/13 05:13:34;;;;;;;21.15;3.20;;;18.80;99.90;;;;;;5050871;28;20024;-69
2023/08/13 05:16:00;;;;;;;19.60;3.17;;;18.80;99.90;;;;;;5052468;28;20465;-67
2023/08/13 05:18:25;;;;;;;14.75;2.42;;;18.90;99.90;;;;;;5052176;28;20436;-67
2023/08/13 05:20:51;;;;;;;13.88;2.53;;;18.90;99.90;;;;;;5051783;28;20045;-67
2023/08/13 05:23:17;;;;;;;15.32;2.78;;;19.00;99.90;;;;;;5052287;28;20079;-69
2023/08/13 05:25:42;;;;;;;16.30;3.45;;;19.00;99.90;;;;;;5051928;28;20031;-67
2023/08/13 05:28:08;;;;;;;17.17;2.70;;;19.10;99.90;;;;;;5052063;28;20488;-68
2023/08/13 05:30:38;;;;;;;10.15;1.92;;;19.20;99.90;;;;;;5052149;28;20039;-67
2023/08/13 05:33:04;;;;;;;12.75;2.72;;;19.20;99.90;;;;;;5051891;28;20492;-69
2023/08/13 05:35:30;;;;;;;19.25;2.67;;;19.30;99.90;;;;;;5052366;28;20029;-69
2023/08/13 05:37:55;;;;;;;13.20;2.63;;;19.30;99.90;;;;;;5051985;28;20029;-67
2023/08/13 05:40:21;;;;;;;15.27;2.67;;;19.30;99.90;;;;;;5052005;28;20057;-67
2023/08/13 05:42:48;;;;;;;15.13;2.80;;;19.30;99.90;;;;;;5052079;28;20103;-68
2023/08/13 05:45:13;;;;;;;16.25;3.42;;;19.20;99.90;;;;;;5050796;28;20029;-68
2023/08/13 05:47:39;;;;;;;16.23;3.08;;;19.20;99.90;;;;;;5051290;28;20025;-69
2023/08/13 05:50:05;;;;;;;13.93;3.10;;;19.20;99.90;;;;;;5051962;28;20476;-68
2023/08/13 05:52:30;;;;;;;15.57;3.53;;;19.10;99.90;;;;;;5051850;28;20465;-65
2023/08/13 05:54:56;;;;;;;15.27;3.30;;;19.20;99.90;;;;;;5051852;28;20036;-68
2023/08/13 05:57:22;;;;;;;10.43;2.78;;;19.10;99.90;;;;;;5051830;28;20467;-67
2023/08/13 05:59:48;;;;;;;17.88;3.70;;;19.10;99.90;;;;;;5050599;28;20547;-68
2023/08/13 06:02:13;;;;;;;20.45;3.65;;;19.20;99.90;;;;;;5052124;28;20108;-68
2023/08/13 06:04:39;;;;;;;17.75;3.75;;;19.20;99.90;;;;;;5052076;28;20048;-68
2023/08/13 06:07:05;;;;;;;16.98;4.07;;;19.10;99.90;;;;;;5052471;28;20021;-66
2023/08/13 06:09:31;;;;;;;14.85;4.15;;;19.00;99.90;;;;;;5051557;28;20090;-66
2023/08/13 06:11:57;;;;;;;19.58;4.00;;;18.90;99.90;;;;;;5051656;28;20032;-65
2023/08/13 06:14:22;;;;;;;11.55;3.63;;;18.70;99.90;;;;;;5049844;28;20095;-65
2023/08/13 06:16:48;;;;;;;18.80;3.80;;;18.70;99.90;;;;;;5050879;28;20028;-67
2023/08/13 06:19:13;;;;;;;11.52;3.47;;;18.60;99.90;;;;;;5052851;28;20060;-66
2023/08/13 06:21:39;;;;;;;16.85;3.95;;;18.60;99.90;;;;;;5055331;28;20039;-66
2023/08/13 06:24:05;;;;;;;17.90;4.03;;;18.60;99.90;;;;;;5053404;28;20025;-66
2023/08/13 06:26:32;;;;;;;21.00;4.63;;;18.50;99.90;;;;;;5055504;28;20064;-66
2023/08/13 06:28:57;;;;;;;13.60;3.85;;;18.50;99.90;;;;;;5055167;28;20029;-66
2023/08/13 06:31:23;;;;;;;12.55;3.40;;;18.50;99.90;;;;;;5054860;28;20192;-66
2023/08/13 06:33:48;;;;;;;14.38;3.30;;;18.60;99.90;;;;;;5055624;28;20392;-66
2023/08/13 06:36:14;;;;;;;18.23;3.40;;;18.80;99.90;;;;;;5055352;28;20036;-67
2023/08/13 06:38:39;;;;;;;15.07;3.58;;;18.80;99.90;;;;;;5052169;28;20021;-67
2023/08/13 06:41:08;;;;;;;19.88;3.40;;;19.00;99.90;;;;;;5054901;28;20416;-67
2023/08/13 06:43:34;;;;;;;16.52;3.10;;;19.80;99.90;;;;;;5055213;28;20483;-67
2023/08/13 06:46:01;;;;;;;9.88;2.95;;;20.70;99.90;;;;;;5054741;28;20029;-67
2023/08/13 06:48:28;;;;;;;13.75;2.60;;;21.20;99.90;;;;;;5054158;28;20167;-67
2023/08/13 06:50:57;;;;;;;15.60;2.97;;;21.30;99.90;;;;;;5055123;28;20112;-66
2023/08/13 06:53:23;;;;;;;11.93;2.97;;;21.20;99.90;;;;;;5054931;28;20091;-66
2023/08/13 06:55:49;;;;;;;12.50;2.90;;;20.80;99.90;;;;;;5055040;28;20037;-68
2023/08/13 06:58:15;;;;;;;15.93;3.42;;;20.50;99.90;;;;;;5054626;28;20108;-67
2023/08/13 07:00:41;;;;;;;13.38;3.10;;;20.40;99.90;;;;;;5054777;28;20405;-66
2023/08/13 07:03:08;;;;;;;14.48;2.55;;;20.80;99.90;;;;;;5054978;28;20377;-67
2023/08/13 07:05:34;;;;;;;11.95;3.28;;;21.90;99.90;;;;;;5055074;28;20021;-67
2023/08/13 07:08:00;;;;;;;12.50;2.55;;;22.80;99.90;;;;;;5054987;28;20029;-67
2023/08/13 07:10:25;;;;;;;12.18;2.40;;;23.80;99.90;;;;;;5054380;28;20060;-67
2023/08/13 07:12:51;;;;;;;14.10;2.63;;;24.40;99.90;;;;;;5054471;28;20025;-68
2023/08/13 07:15:17;;;;;;;8.98;2.30;;;24.70;99.90;;;;;;5054457;28;20067;-67
2023/08/13 07:17:42;;;;;;;7.18;2.28;;;25.10;99.90;;;;;;5054673;28;20022;-69
2023/08/13 07:20:10;;;;;;;10.23;2.35;;;25.70;99.90;;;;;;5054412;28;20400;-67
2023/08/13 07:22:39;;;;;;;8.50;2.20;;;25.40;99.90;;;;;;5053239;28;20426;-65
2023/08/13 07:25:05;;;;;;;15.13;3.00;;;24.90;99.90;;;;;;5054246;28;20033;-67
2023/08/13 07:27:32;;;;;;;11.57;2.40;;;24.50;99.90;;;;;;5054011;28;20043;-68
2023/08/13 07:29:57;;;;;;;10.07;2.05;;;24.30;99.90;;;;;;5053862;28;20396;-68
2023/08/13 07:32:23;;;;;;;9.73;2.28;;;24.30;99.90;;;;;;5053931;28;20021;-66
2023/08/13 07:34:48;;;;;;;6.28;1.95;;;24.10;99.90;;;;;;5053921;28;20029;-68
2023/08/13 07:37:14;;;;;;;12.88;2.55;;;23.90;99.90;;;;;;5054349;28;20064;-67
2023/08/13 07:39:40;;;;;;;11.30;2.50;;;23.90;99.90;;;;;;5053562;28;20413;-68
2023/08/13 07:42:08;;;;;;;10.75;2.25;;;23.90;99.90;;;;;;5053952;28;20021;-67
2023/08/13 07:44:34;;;;;;;6.53;1.80;;;24.00;99.90;;;;;;5053899;28;20052;-67
2023/08/13 07:47:00;;;;;;;11.57;2.53;;;24.00;99.90;;;;;;5053744;28;20074;-68
2023/08/13 07:49:27;;;;;;;8.60;1.85;;;24.10;99.90;;;;;;5053929;28;20029;-67
2023/08/13 07:51:52;;;;;;;8.45;2.05;;;24.00;99.90;;;;;;5053918;28;20029;-67
2023/08/13 07:54:19;;;;;;;9.68;2.10;;;23.90;99.90;;;;;;5053671;28;20025;-69
2023/08/13 07:56:45;;;;;;;8.68;1.73;;;24.00;99.90;;;;;;5053262;28;20115;-70
2023/08/13 07:59:11;;;;;;;9.35;2.05;;;24.20;99.90;;;;;;5053408;28;20167;-67
2023/08/13 08:01:36;;;;;;;10.15;2.60;;;24.20;99.90;;;;;;5053526;28;20025;-67
2023/08/13 08:04:03;;;;;;;11.93;1.90;;;24.10;99.90;;;;;;5053561;28;20474;-68
2023/08/13 08:06:29;;;;;;;7.82;1.98;;;24.30;99.90;;;;;;5052568;28;20112;-66
2023/08/13 08:08:54;;;;;;;9.55;2.63;;;24.50;99.90;;;;;;5053390;28;20194;-67
2023/08/13 08:11:20;;;;;;;9.35;2.15;;;24.30;99.90;;;;;;5053020;28;20057;-67
2023/08/13 08:13:46;;;;;;;7.97;1.70;;;24.20;99.90;;;;;;5053320;28;20103;-69
2023/08/13 08:16:11;;;;;;;8.77;1.75;;;24.10;99.90;;;;;;5051903;28;20501;-66
2023/08/13 08:18:37;;;;;;;9.05;2.20;;;23.80;99.90;;;;;;5053702;28;20021;-67
2023/08/13 08:21:02;;;;;;;11.98;2.47;;;23.60;99.90;;;;;;5052560;28;20043;-67
2023/08/13 08:23:28;;;;;;;8.05;2.10;;;23.50;99.90;;;;;;5052365;28;20065;-68
2023/08/13 08:25:53;;;;;;;7.07;2.22;;;23.40;99.90;;;;;;5053094;28;20021;-66
2023/08/13 08:28:19;;;;;;;7.88;2.30;;;23.50;99.90;;;;;;5052894;28;20072;-66
2023/08/13 08:30:45;;;;;;;8.00;2.35;;;23.70;99.90;;;;;;5052762;28;20025;-67
2023/08/13 08:33:10;;;;;;;11.40;2.47;;;24.10;99.90;;;;;;5051299;28;20389;-67
2023/08/13 08:35:36;;;;;;;11.73;2.60;;;24.30;99.90;;;;;;5052938;28;20029;-68
2023/08/13 08:38:02;;;;;;;12.50;3.00;;;24.30;99.90;;;;;;5053418;28;20029;-66
2023/08/13 08:40:27;;;;;;;9.10;2.33;;;24.10;99.90;;;;;;5052580;28;20568;-67
2023/08/13 08:42:53;;;;;;;8.38;3.10;;;24.10;99.90;;;;;;5051779;28;20036;-67
2023/08/13 08:45:21;;;;;;;15.95;3.10;;;24.10;99.90;;;;;;5052960;28;20086;-68
2023/08/13 08:47:48;;;;;;;8.02;2.10;;;24.10;99.90;;;;;;5052852;28;20024;-68
2023/08/13 08:50:13;;;;;;;8.15;1.90;;;24.40;99.90;;;;;;5052768;28;20078;-67
2023/08/13 08:52:39;;;;;;;9.25;2.03;;;24.50;99.90;;;;;;5052567;28;20025;-67
2023/08/13 08:55:06;;;;;;;5.78;2.00;;;24.40;99.90;;;;;;5052403;28;20029;-67
2023/08/13 08:57:32;;;;;;;10.65;1.85;;;24.50;99.90;;;;;;5052084;28;20025;-68
2023/08/13 08:59:58;;;;;;;8.15;2.10;;;24.50;99.90;;;;;;5052098;28;20082;-68
2023/08/13 09:02:24;;;;;;;3.60;1.60;;;24.70;99.90;;;;;;5052729;28;20082;-67
2023/08/13 09:04:50;;;;;;;6.15;1.40;;;25.30;99.90;;;;;;5052465;28;20032;-67
2023/08/13 09:07:16;;;;;;;10.35;2.00;;;25.60;99.90;;;;;;5051020;28;20077;-67
2023/08/13 09:09:43;;;;;;;6.70;1.65;;;25.90;99.90;;;;;;5052220;28;20380;-66
2023/08/13 09:12:09;;;;;;;9.10;1.60;;;26.30;99.90;;;;;;5052084;28;20029;-67
2023/08/13 09:14:35;;;;;;;9.70;2.00;;;26.70;99.70;;;;;;5052426;28;20033;-66
2023/08/13 09:17:01;;;;;;;5.03;1.50;;;26.80;99.70;;;;;;5052356;28;20029;-67
2023/08/13 09:19:28;;;;;;;5.10;1.52;;;26.80;98.80;;;;;;5052254;28;20072;-69
2023/08/13 09:21:58;;;;;;;6.70;1.48;;;27.00;98.60;;;;;;5051960;28;20049;-66
2023/08/13 09:24:36;;;;;;;5.10;1.77;;;27.50;98.20;;;;;;5052053;28;20095;-67
2023/08/13 09:27:03;;;;;;;7.53;1.98;;;27.80;97.80;;;;;;5052336;28;20029;-67
2023/08/13 09:29:30;;;;;;;10.10;2.08;;;28.10;97.50;;;;;;5052347;28;20033;-66
2023/08/13 09:31:57;;;;;;;8.13;2.50;;;28.40;97.20;;;;;;5052296;28;20079;-67
2023/08/13 09:34:24;;;;;;;7.35;2.38;;;28.60;96.60;;;;;;5050613;28;20099;-68
2023/08/13 09:36:52;;;;;;;6.30;1.67;;;28.30;96.60;;;;;;5051114;28;20025;-68
2023/08/13 09:39:18;;;;;;;8.30;1.25;;;28.00;96.50;;;;;;5051671;28;20446;-69
2023/08/13 09:41:46;;;;;;;7.28;1.80;;;27.90;96.40;;;;;;5052060;28;20025;-70
2023/08/13 09:44:14;;;;;;;5.05;2.67;;;28.20;96.60;;;;;;5051723;28;20079;-69
2023/08/13 09:46:41;;;;;;;6.55;1.50;;;29.10;95.80;;;;;;5059612;28;20037;-68
2023/08/13 09:49:09;;;;;;;6.53;1.23;;;29.70;95.20;;;;;;5063386;28;20798;-68
2023/08/13 09:51:38;;;;;;;4.25;1.33;;;29.90;95.10;;;;;;5071909;28;20036;-70
2023/08/13 09:54:13;;;;;;;5.20;1.48;;;30.00;94.90;;;;;;5066094;28;20021;-67
2023/08/13 09:56:42;;;;;;;5.20;1.30;;;30.20;94.60;;;;;;5055775;28;20032;-67
2023/08/13 09:59:09;;;;;;;6.95;1.77;;;30.80;94.20;;;;;;5054148;28;20380;-66
2023/08/13 10:01:36;;;;;;;9.48;1.70;;;30.70;93.90;;;;;;5055279;28;20033;-68
2023/08/13 10:04:03;;;;;;;6.18;1.75;;;30.40;94.40;;;;;;5075235;28;20037;-70
2023/08/13 10:06:29;;;;;;;5.50;1.52;;;30.00;94.80;;;;;;5074746;28;20036;-68
2023/08/13 10:08:55;;;;;;;8.15;1.90;;;29.80;95.20;;;;;;5075737;28;20037;-68
2023/08/13 10:11:22;;;;;;;9.40;1.52;;;30.00;95.10;;;;;;5075922;28;20058;-68
2023/08/13 10:13:48;;;;;;;6.50;1.42;;;30.70;94.50;;;;;;5075424;28;20029;-68
2023/08/13 10:16:14;;;;;;;3.97;1.10;;;30.40;93.70;;;;;;5075758;28;20031;-69
2023/08/13 10:18:45;;;;;;;3.97;1.20;;;29.80;94.00;;;;;;5075095;28;20542;-68
2023/08/13 10:21:13;;;;;;;6.55;1.50;;;28.90;94.80;;;;;;5037428;28;20090;-69
2023/08/13 10:23:39;;;;;;;5.22;1.30;;;28.30;95.40;;;;;;5055354;28;20036;-68
2023/08/13 10:26:05;;;;;;;7.22;1.50;;;27.80;95.90;;;;;;5055489;28;20025;-68
2023/08/13 10:28:31;;;;;;;7.55;1.70;;;27.30;96.50;;;;;;5055353;28;20090;-69
2023/08/13 10:31:34;;;;;;;3.40;1.48;;;27.20;96.90;;;;;;5054622;28;20052;-68
2023/08/13 10:34:12;;;;;;;4.20;1.58;;;27.40;96.80;;;;;;5055025;28;20090;-69
2023/08/13 10:36:52;;;;;;;5.95;1.52;;;27.10;96.80;;;;;;5054938;28;20151;-70
2023/08/13 10:39:45;;;;;;;4.65;1.55;;;26.70;97.20;;;;;;5054499;28;20084;-68
2023/08/13 10:42:31;;;;;;;6.40;1.95;;;26.20;98.40;;;;;;5053345;28;20449;-68
2023/08/13 10:45:07;;;;;;;6.18;2.20;;;25.90;98.60;;;;;;5055242;28;20067;-70
2023/08/13 10:48:00;;;;;;;6.90;1.58;;;25.60;99.00;;;;;;5054790;28;20037;-68
2023/08/13 10:50:36;;;;;;;4.22;1.40;;;25.60;99.00;;;;;;5053979;28;20063;-68
2023/08/13 10:53:07;;;;;;;6.88;1.70;;;25.60;99.10;;;;;;5056157;28;20052;-67
2023/08/13 10:55:40;;;;;;;4.53;1.35;;;25.60;99.10;;;;;;5074897;28;20029;-70
2023/08/13 10:58:06;;;;;;;7.25;1.75;;;25.30;99.30;;;;;;5073031;28;20055;-68
2023/08/13 11:00:41;;;;;;;5.88;1.70;;;24.90;99.90;;;;;;5074815;28;20047;-69
2023/08/13 11:03:25;;;;;;;10.45;2.00;;;24.80;99.90;;;;;;5074967;28;20028;-68
2023/08/13 11:05:51;;;;;;;9.65;1.58;;;24.80;99.90;;;;;;5034530;28;20032;-70
2023/08/13 11:08:22;;;;;;;8.02;1.95;;;24.80;99.90;;;;;;5042045;28;20461;-70
2023/08/13 11:10:48;;;;;;;6.78;1.52;;;24.70;99.90;;;;;;5054574;28;20051;-67
2023/08/13 11:13:15;;;;;;;8.68;1.75;;;24.70;99.90;;;;;;5052101;28;20591;-67
2023/08/13 11:15:51;;;;;;;5.57;1.50;;;24.60;99.90;;;;;;5051836;28;20036;-66
2023/08/13 11:18:17;;;;;;;5.13;1.40;;;24.40;99.90;;;;;;5052435;28;20032;-68
2023/08/13 11:20:44;;;;;;;6.65;1.85;;;24.50;99.90;;;;;;5052700;28;20106;-69
2023/08/13 11:23:15;;;;;;;5.13;1.50;;;25.10;99.90;;;;;;5052927;28;20036;-69
2023/08/13 11:25:41;;;;;;;3.20;1.27;;;26.10;99.50;;;;;;5051398;28;20029;-69
2023/08/13 11:28:09;;;;;;;7.10;1.80;;;26.60;98.90;;;;;;5053794;28;20024;-67
2023/08/13 11:30:40;;;;;;;7.15;1.42;;;27.50;98.20;;;;;;5053806;28;20032;-67
2023/08/13 11:33:05;;;;;;;6.60;1.17;;;28.80;96.90;;;;;;5054423;28;20021;-69
2023/08/13 11:35:32;;;;;;;4.57;1.20;;;29.30;95.30;;;;;;5053763;28;20500;-68
2023/08/13 11:37:58;;;;;;;5.45;1.17;;;29.60;94.80;;;;;;5053352;28;20107;-68
2023/08/13 11:40:23;;;;;;;3.65;1.20;;;29.60;94.90;;;;;;5063781;28;20205;-67
2023/08/13 11:42:54;;;;;;;2.78;0.90;;;29.50;94.80;;;;;;5060747;28;20052;-68
2023/08/13 11:45:22;;;;;;;3.88;0.95;;;29.80;94.10;;;;;;5053516;28;20388;-68
2023/08/13 11:47:47;;;;;;;4.70;1.27;;;29.80;94.30;;;;;;5072458;28;20035;-71
2023/08/13 11:50:20;;;;;;;4.32;1.15;;;30.00;94.00;;;;;;5074018;28;20028;-70
2023/08/13 11:53:05;;;;;;;2.88;0.88;;;30.40;93.80;;;;;;5074102;28;20031;-67
2023/08/13 11:55:32;;;;;;;3.83;1.08;;;31.10;93.30;;;;;;5061638;28;20029;-67
2023/08/13 11:57:58;;;;;;;2.88;1.00;;;31.60;92.70;;;;;;5053799;28;20484;-67
2023/08/13 12:00:25;;;;;;;3.97;1.00;;;31.70;92.20;;;;;;5053109;28;20041;-67
2023/08/13 12:02:54;;;;;;;2.72;1.10;;;31.50;92.00;;;;;;5053689;28;20025;-69
2023/08/13 12:05:26;;;;;;;5.93;1.40;;;31.00;92.30;;;;;;5053653;28;20066;-67
2023/08/13 12:07:53;;;;;;;4.82;1.30;;;30.90;92.70;;;;;;5053874;28;20168;-67
2023/08/13 12:10:18;;;;;;;5.53;1.00;;;31.00;92.30;;;;;;5053400;28;20457;-70
2023/08/13 12:12:44;;;;;;;3.75;1.08;;;30.90;92.50;;;;;;5066615;28;20040;-67
2023/08/13 12:15:10;;;;;;;7.13;1.55;;;30.80;92.40;;;;;;5072817;28;20495;-68
2023/08/13 12:17:35;;;;;;;2.05;0.90;;;30.50;92.60;;;;;;5072938;28;20021;-70
2023/08/13 12:20:01;;;;;;;4.93;0.98;;;29.90;92.60;;;;;;5073026;28;20056;-71
2023/08/13 12:22:26;;;;;;;4.88;1.00;;;29.50;92.90;;;;;;5073476;28;20032;-67
2023/08/13 12:24:52;;;;;;;2.25;0.82;;;29.10;93.20;;;;;;5073405;28;20024;-70
2023/08/13 12:27:17;;;;;;;3.08;1.08;;;28.50;93.50;;;;;;5073248;28;20024;-69
2023/08/13 12:29:43;;;;;;;4.07;1.08;;;27.90;94.30;;;;;;5072645;28;20047;-69
2023/08/13 12:32:08;;;;;;;4.82;1.05;;;27.40;94.80;;;;;;5073347;28;20024;-70
2023/08/13 12:34:34;;;;;;;2.45;1.00;;;27.00;95.30;;;;;;5072851;28;20028;-68
2023/08/13 12:36:59;;;;;;;3.92;1.17;;;26.60;95.90;;;;;;5071821;28;20119;-70
2023/08/13 12:39:25;;;;;;;5.22;1.30;;;26.20;97.40;;;;;;5072484;28;20075;-68